M I D A S
Marine Information and Data Acquisition System
Tripno 2304 of the Zeeleeuw from 2012-02-21 07:21:21 to 2012-02-21 16:34:13
Back to CruiseResearch ActivitiesStationsMapUnderway DataData graphs

EquipmentUnitsComments
TimeDGPSUTC
LatitudeDGPSDM.mWGS84
LongitudeDGPSDM.mWGS84
SpeedMeteo Stationm/sRelative wind speed
DirectionMeteo StationdegRelative wind direction
TemperatureMeteo Stationdeg CelciusAir temperature
PressureMeteo StationPaAtmospheric pressure
HumidityMeteo Station%Relative humidity
Missing or incorrect values are displayed as -999
Metereological data collected by the RV Zeeleeuw from 2012-02-21 07:05:18 to 2012-02-21 16:35:23
Time Latitude Longitude Speed Direction Temperature Pressure Humidity
2012-02-21 07:06 51°13.637 2°56.016 4.2 8 2.6 102910 44
2012-02-21 07:07 51°13.637 2°56.017 2 5 2.6 102910 45
2012-02-21 07:08 51°13.636 2°56.018 0.8 22 2.6 102910 43
2012-02-21 07:09 51°13.636 2°56.018 3.3 15 2.6 102910 45
2012-02-21 07:10 51°13.636 2°56.019 1.9 16 2.6 102920 45
2012-02-21 07:11 51°13.634 2°56.019 2.3 4 2.6 102920 45
2012-02-21 07:12 51°13.635 2°56.019 2.4 21 2.5 102920 45
2012-02-21 07:13 51°13.638 2°56.017 2.8 4 2.5 102920 43
2012-02-21 07:14 51°13.637 2°56.018 2.8 11 2.6 102920 42
2012-02-21 07:15 51°13.636 2°56.018 1.7 24 2.6 102920 43
2012-02-21 07:16 51°13.637 2°56.018 3.5 14 2.6 102920 43
2012-02-21 07:17 51°13.636 2°56.018 3.8 12 2.6 102920 43
2012-02-21 07:18 51°13.635 2°56.017 3.9 17 2.6 102920 44
2012-02-21 07:19 51°13.634 2°56.018 3.4 15 2.6 102920 44
2012-02-21 07:20 51°13.636 2°56.017 1.2 8 2.6 102920 44
2012-02-21 07:21 51°13.636 2°56.018 2.8 6 2.6 102920 45
2012-02-21 07:22 51°13.636 2°56.018 3.4 24 2.6 102920 44
2012-02-21 07:23 51°13.636 2°56.018 3 19 2.6 102930 44
2012-02-21 07:24 51°13.634 2°56.017 2.4 26 2.6 102920 45
2012-02-21 07:25 51°13.652 2°55.937 3.2 37 2.6 102930 45
2012-02-21 07:26 51°13.689 2°55.811 3.5 74 2.6 102920 43
2012-02-21 07:27 51°13.745 2°55.712 3.7 26 2.6 102920 44
2012-02-21 07:28 51°13.826 2°55.64 0.6 76 2.6 102920 44
2012-02-21 07:29 51°13.904 2°55.607 0.6 282 2.7 102920 44
2012-02-21 07:30 51°13.963 2°55.633 -999 349 2.7 102920 44
2012-02-21 07:31 51°13.983 2°55.646 3.9 282 2.8 102920 44
2012-02-21 07:32 51°14.023 2°55.554 5.3 283 2.8 102920 43
2012-02-21 07:33 51°14.145 2°55.413 4.3 25 2.9 102920 45
2012-02-21 07:34 51°14.294 2°55.273 8.9 281 3 102920 45
2012-02-21 07:35 51°14.451 2°55.121 7.3 280 3.1 102920 45
2012-02-21 07:36 51°14.598 2°54.93 8.2 247 3.2 102910 45
2012-02-21 07:37 51°14.76 2°54.741 7.7 284 3.3 102920 44
2012-02-21 07:38 51°14.938 2°54.553 6.6 280 3.3 102910 44
2012-02-21 07:39 51°15.1 2°54.393 7.5 284 3.3 102920 44
2012-02-21 07:40 51°15.273 2°54.245 6.9 250 3.4 102920 45
2012-02-21 07:41 51°15.453 2°54.138 5.6 285 3.4 102920 45
2012-02-21 07:42 51°15.64 2°54.149 2.7 280 3.5 102920 44
2012-02-21 07:43 51°15.819 2°54.231 3 270 3.5 102910 44
2012-02-21 07:44 51°16.002 2°54.294 3.1 81 3.5 102910 44
2012-02-21 07:45 51°16.136 2°54.313 5.7 22 3.5 102900 46
2012-02-21 07:46 51°16.223 2°54.319 5.3 18 3.5 102910 45
2012-02-21 07:47 51°16.26 2°54.328 8.3 22 3.5 102910 44
2012-02-21 07:48 51°16.263 2°54.321 8.9 21 3.4 102910 44
2012-02-21 07:49 51°16.266 2°54.311 8.1 21 3.4 102910 45
2012-02-21 07:50 51°16.267 2°54.298 5.2 264 3.4 102920 45
2012-02-21 07:51 51°16.265 2°54.285 6.3 263 3.4 102930 45
2012-02-21 07:52 51°16.263 2°54.274 9.9 260 3.4 102930 44
2012-02-21 07:53 51°16.26 2°54.264 7 261 3.5 102930 45
2012-02-21 07:54 51°16.276 2°54.223 8.7 253 3.5 102920 45
2012-02-21 07:55 51°16.348 2°54.054 9.2 22 3.5 102910 44
2012-02-21 07:56 51°16.469 2°53.83 8.5 25 3.5 102880 45
2012-02-21 07:57 51°16.595 2°53.569 7.9 18 3.6 102890 45
2012-02-21 07:58 51°16.734 2°53.328 11 20 3.6 102890 45
2012-02-21 07:59 51°16.86 2°53.073 10.3 26 3.6 102890 46
2012-02-21 08:00 51°16.983 2°52.824 9.1 20 3.7 102890 45
2012-02-21 08:01 51°17.129 2°52.609 7.5 20 3.7 102890 46
2012-02-21 08:02 51°17.28 2°52.401 9.4 19 3.7 102890 45
2012-02-21 08:03 51°17.427 2°52.184 7.9 22 3.7 102900 45
2012-02-21 08:04 51°17.576 2°51.972 7.8 22 3.7 102900 46
2012-02-21 08:05 51°17.725 2°51.769 9.8 23 3.8 102900 45
2012-02-21 08:06 51°17.866 2°51.544 8.1 247 3.8 102880 46
2012-02-21 08:07 51°18.012 2°51.323 7.9 24 3.8 102880 46
2012-02-21 08:08 51°18.188 2°51.192 7.5 250 3.9 102890 46
2012-02-21 08:09 51°18.366 2°51.1 6.6 259 3.9 102900 46
2012-02-21 08:10 51°18.478 2°51.029 5.6 267 3.9 102910 45
2012-02-21 08:11 51°18.498 2°50.979 9.9 258 3.9 102930 45
2012-02-21 08:12 51°18.487 2°50.964 10 263 4 102940 45
2012-02-21 08:13 51°18.476 2°50.951 7.2 269 4 102940 46
2012-02-21 08:14 51°18.465 2°50.938 7.6 267 4 102930 46
2012-02-21 08:15 51°18.453 2°50.925 7.1 270 3.9 102930 43
2012-02-21 08:16 51°18.441 2°50.913 8.1 270 3.9 102930 46
2012-02-21 08:17 51°18.43 2°50.9 6.2 267 3.9 102940 46
2012-02-21 08:18 51°18.42 2°50.885 6.6 263 3.9 102930 46
2012-02-21 08:19 51°18.41 2°50.871 6.3 264 3.9 102920 45
2012-02-21 08:20 51°18.399 2°50.858 7.3 262 3.9 102930 46
2012-02-21 08:21 51°18.387 2°50.845 4.9 280 3.9 102930 45
2012-02-21 08:22 51°18.376 2°50.835 6.5 268 3.9 102920 45
2012-02-21 08:23 51°18.364 2°50.825 6 269 3.9 102920 45
2012-02-21 08:24 51°18.351 2°50.816 7.3 270 3.9 102930 47
2012-02-21 08:25 51°18.339 2°50.806 6.2 267 3.9 102930 46
2012-02-21 08:26 51°18.327 2°50.795 7.3 265 3.9 102920 45
2012-02-21 08:27 51°18.316 2°50.785 7.2 269 3.9 102930 44
2012-02-21 08:28 51°18.303 2°50.774 6.7 269 3.9 102930 46
2012-02-21 08:29 51°18.292 2°50.764 6.3 266 3.9 102930 45
2012-02-21 08:30 51°18.28 2°50.753 6.8 266 3.9 102900 45
2012-02-21 08:31 51°18.289 2°50.736 6.4 20 3.9 102910 47
2012-02-21 08:32 51°18.311 2°50.8 7 29 4 102910 47
2012-02-21 08:33 51°18.346 2°50.997 4.1 36 4 102910 46
2012-02-21 08:34 51°18.42 2°51.258 3.8 31 4 102910 47
2012-02-21 08:35 51°18.483 2°51.532 5 22 4.1 102910 45
2012-02-21 08:36 51°18.534 2°51.816 5.1 22 4.1 102920 45
2012-02-21 08:37 51°18.594 2°52.097 4.5 28 4.1 102910 45
2012-02-21 08:38 51°18.662 2°52.375 3.7 26 4.1 102910 47
2012-02-21 08:39 51°18.724 2°52.665 4.1 30 4.1 102910 45
2012-02-21 08:40 51°18.79 2°52.945 4.4 18 4 102910 45
2012-02-21 08:41 51°18.842 2°53.231 4.9 24 4 102910 46
2012-02-21 08:42 51°18.901 2°53.508 3.3 25 4 102910 46
2012-02-21 08:43 51°18.962 2°53.79 3.6 22 4 102910 47
2012-02-21 08:44 51°19.025 2°54.07 3.8 21 4 102910 45
2012-02-21 08:45 51°19.083 2°54.353 4.3 22 4 102910 47
2012-02-21 08:46 51°19.143 2°54.633 3.6 22 3.9 102920 46
2012-02-21 08:47 51°19.203 2°54.917 4.3 22 3.9 102910 46
2012-02-21 08:48 51°19.267 2°55.2 3.6 18 4 102920 47
2012-02-21 08:49 51°19.33 2°55.483 4.5 28 4 102920 46
2012-02-21 08:50 51°19.393 2°55.765 4.6 24 4 102920 47
2012-02-21 08:51 51°19.446 2°56.056 3.6 23 4 102920 45
2012-02-21 08:52 51°19.509 2°56.338 4.1 25 4 102920 45
2012-02-21 08:53 51°19.563 2°56.621 4.4 19 4 102920 45
2012-02-21 08:54 51°19.623 2°56.901 3.7 25 4 102920 47
2012-02-21 08:55 51°19.686 2°57.184 4.5 19 4 102920 47
2012-02-21 08:56 51°19.733 2°57.479 5.7 18 4 102920 46
2012-02-21 08:57 51°19.787 2°57.767 4.7 25 4 102910 45
2012-02-21 08:58 51°19.85 2°58.053 4.3 28 4 102920 46
2012-02-21 08:59 51°19.92 2°58.338 4.6 27 4 102920 45
2012-02-21 09:00 51°19.984 2°58.628 4 27 4 102920 45
2012-02-21 09:01 51°20.052 2°58.914 4.3 32 4.1 102910 45
2012-02-21 09:02 51°20.117 2°59.202 4.3 24 4.1 102910 45
2012-02-21 09:03 51°20.175 2°59.499 3.5 26 4.1 102910 45
2012-02-21 09:04 51°20.233 2°59.794 4.5 29 4.1 102900 46
2012-02-21 09:05 51°20.291 3°0.09 3.8 23 4.2 102920 45
2012-02-21 09:06 51°20.346 3°0.388 3.9 27 4.2 102920 46
2012-02-21 09:07 51°20.421 3°0.676 3.6 30 4.2 102920 45
2012-02-21 09:08 51°20.489 3°0.968 3.6 30 4.3 102910 45
2012-02-21 09:09 51°20.56 3°1.257 3.3 26 4.3 102920 46
2012-02-21 09:10 51°20.626 3°1.551 3.5 24 4.3 102920 46
2012-02-21 09:11 51°20.696 3°1.842 3.6 23 4.4 102920 45
2012-02-21 09:12 51°20.747 3°2.143 4.4 24 4.3 102920 45
2012-02-21 09:13 51°20.81 3°2.442 3.4 31 4.4 102920 46
2012-02-21 09:14 51°20.902 3°2.713 2.3 28 4.4 102930 44
2012-02-21 09:15 51°20.99 3°2.987 2.9 26 4.5 102930 46
2012-02-21 09:16 51°21.072 3°3.269 3.3 26 4.5 102930 45
2012-02-21 09:17 51°21.138 3°3.561 4.3 28 4.5 102930 44
2012-02-21 09:18 51°21.221 3°3.841 2.9 40 4.5 102930 46
2012-02-21 09:19 51°21.303 3°4.121 4 36 4.5 102930 46
2012-02-21 09:20 51°21.384 3°4.404 4.1 28 4.5 102930 46
2012-02-21 09:21 51°21.461 3°4.69 3.1 31 4.6 102930 46
2012-02-21 09:22 51°21.543 3°4.971 2.9 32 4.6 102940 45
2012-02-21 09:23 51°21.625 3°5.253 4.9 29 4.7 102940 44
2012-02-21 09:24 51°21.672 3°5.556 4.2 25 4.7 102940 44
2012-02-21 09:25 51°21.719 3°5.86 4.1 24 4.7 102940 45
2012-02-21 09:26 51°21.765 3°6.166 3.8 27 4.7 102930 45
2012-02-21 09:27 51°21.82 3°6.469 3.8 26 4.7 102940 44
2012-02-21 09:28 51°21.863 3°6.778 4.4 23 4.7 102930 45
2012-02-21 09:29 51°21.914 3°7.083 3.2 28 4.8 102940 45
2012-02-21 09:30 51°21.961 3°7.392 4.3 26 4.8 102940 45
2012-02-21 09:31 51°22.014 3°7.698 4.1 33 4.9 102940 46
2012-02-21 09:32 51°22.052 3°8.013 5.2 23 4.9 102940 46
2012-02-21 09:33 51°22.059 3°8.338 5.8 23 4.9 102930 44
2012-02-21 09:34 51°22.077 3°8.66 5 27 4.9 102930 44
2012-02-21 09:35 51°22.098 3°8.965 5 32 5 102930 44
2012-02-21 09:36 51°22.124 3°9.266 4.8 26 5 102930 44
2012-02-21 09:37 51°22.15 3°9.571 5.2 26 5 102940 46
2012-02-21 09:38 51°22.179 3°9.902 3.9 30 5 102930 44
2012-02-21 09:39 51°22.23 3°10.234 4.3 28 5.1 102940 44
2012-02-21 09:40 51°22.273 3°10.571 4.3 32 5.1 102930 45
2012-02-21 09:41 51°22.314 3°10.909 5 21 5.2 102930 44
2012-02-21 09:42 51°22.315 3°11.256 5.5 24 5.2 102920 45
2012-02-21 09:43 51°22.331 3°11.605 5 30 5.2 102930 44
2012-02-21 09:44 51°22.355 3°11.955 5 26 5.2 102930 44
2012-02-21 09:45 51°22.39 3°12.306 6.7 36 5.3 102930 44
2012-02-21 09:46 51°22.407 3°12.66 6.2 26 5.4 102920 46
2012-02-21 09:47 51°22.42 3°12.926 6.3 36 5.5 102920 45
2012-02-21 09:48 51°22.424 3°13.107 9.3 39 5.5 102920 45
2012-02-21 09:49 51°22.468 3°13.219 9.6 19 5.6 102920 44
2012-02-21 09:50 51°22.547 3°13.218 10.6 253 5.6 102910 44
2012-02-21 09:51 51°22.609 3°13.19 9.3 254 5.7 102900 44
2012-02-21 09:52 51°22.62 3°13.209 9.6 260 5.7 102910 44
2012-02-21 09:53 51°22.627 3°13.239 7.6 270 5.7 102910 44
2012-02-21 09:54 51°22.634 3°13.274 7.2 265 5.6 102910 45
2012-02-21 09:55 51°22.639 3°13.308 5.8 266 5.6 102910 44
2012-02-21 09:56 51°22.644 3°13.343 7.4 262 5.6 102910 43
2012-02-21 09:57 51°22.648 3°13.38 7.7 263 5.6 102910 44
2012-02-21 09:58 51°22.654 3°13.415 7.4 264 5.5 102910 45
2012-02-21 09:59 51°22.699 3°13.391 10.3 22 5.5 102900 44
2012-02-21 10:00 51°22.806 3°13.264 6.2 19 5.5 102890 44
2012-02-21 10:01 51°22.957 3°13.098 10.2 23 5.4 102880 44
2012-02-21 10:02 51°23.136 3°12.952 10.5 22 5.4 102890 44
2012-02-21 10:03 51°23.314 3°12.8 12.3 22 5.3 102880 44
2012-02-21 10:04 51°23.491 3°12.645 11.3 22 5.3 102890 44
2012-02-21 10:05 51°23.663 3°12.482 11.1 26 5.3 102890 44
2012-02-21 10:06 51°23.836 3°12.329 9.1 25 5.3 102890 43
2012-02-21 10:07 51°23.982 3°12.125 12 26 5.3 102890 44
2012-02-21 10:08 51°24.107 3°11.882 12.1 25 5.2 102880 44
2012-02-21 10:09 51°24.237 3°11.643 10.7 24 5.2 102870 44
2012-02-21 10:10 51°24.368 3°11.405 11.3 18 5.1 102880 44
2012-02-21 10:11 51°24.48 3°11.155 11 25 5.1 102880 43
2012-02-21 10:12 51°24.551 3°10.875 14.9 23 5.1 102880 45
2012-02-21 10:13 51°24.606 3°10.585 16.9 20 5.2 102860 44
2012-02-21 10:14 51°24.648 3°10.289 13.2 25 5.2 102880 44
2012-02-21 10:15 51°24.668 3°9.989 13.5 317 5.1 102880 44
2012-02-21 10:16 51°24.701 3°9.691 12.3 24 5.1 102880 44
2012-02-21 10:17 51°24.735 3°9.393 14.3 315 5 102880 44
2012-02-21 10:18 51°24.752 3°9.092 16.5 24 5 102880 45
2012-02-21 10:19 51°24.772 3°8.79 11.2 24 5 102870 45
2012-02-21 10:20 51°24.807 3°8.494 13.9 24 5 102870 44
2012-02-21 10:21 51°24.825 3°8.193 12.4 317 5 102870 45
2012-02-21 10:22 51°24.842 3°7.891 11.6 19 5 102870 45
2012-02-21 10:23 51°24.963 3°7.671 10.2 25 5 102880 45
2012-02-21 10:24 51°25.122 3°7.522 8.5 254 5 102890 44
2012-02-21 10:25 51°25.314 3°7.536 8.7 259 5 102910 45
2012-02-21 10:26 51°25.506 3°7.61 3.4 267 5 102920 45
2012-02-21 10:27 51°25.692 3°7.721 3.4 263 5 102930 44
2012-02-21 10:28 51°25.875 3°7.85 3.7 268 5 102930 45
2012-02-21 10:29 51°26.058 3°7.978 4.5 269 5 102930 46
2012-02-21 10:30 51°26.229 3°8.101 5.9 24 5 102930 46
2012-02-21 10:31 51°26.32 3°8.213 6.2 21 5.1 102930 44
2012-02-21 10:32 51°26.403 3°8.284 7.2 329 5.1 102920 44
2012-02-21 10:33 51°26.448 3°8.303 9.9 260 5 102920 46
2012-02-21 10:34 51°26.449 3°8.324 10.1 254 5 102910 46
2012-02-21 10:35 51°26.444 3°8.358 10.1 257 5 102910 46
2012-02-21 10:36 51°26.438 3°8.401 5.4 264 5 102910 45
2012-02-21 10:37 51°26.427 3°8.446 7.6 263 5.1 102910 45
2012-02-21 10:38 51°26.415 3°8.491 9 270 5.1 102910 46
2012-02-21 10:39 51°26.404 3°8.535 8.9 268 5.1 102910 45
2012-02-21 10:40 51°26.394 3°8.579 9.1 28 5.1 102910 46
2012-02-21 10:41 51°26.389 3°8.621 8.6 29 5.1 102910 44
2012-02-21 10:42 51°26.419 3°8.626 9 249 5 102910 45
2012-02-21 10:43 51°26.477 3°8.496 12.3 24 5 102880 46
2012-02-21 10:44 51°26.565 3°8.265 12.1 20 5.1 102870 45
2012-02-21 10:45 51°26.636 3°8.003 10.4 26 5.1 102870 45
2012-02-21 10:46 51°26.72 3°7.748 11.4 284 5.1 102890 44
2012-02-21 10:47 51°26.807 3°7.496 11.1 281 5 102890 45
2012-02-21 10:48 51°26.882 3°7.234 10.5 285 5 102880 44
2012-02-21 10:49 51°26.962 3°6.974 11.6 281 4.9 102880 45
2012-02-21 10:50 51°27.049 3°6.721 13 282 4.9 102880 45
2012-02-21 10:51 51°27.127 3°6.458 10.1 282 4.9 102880 45
2012-02-21 10:52 51°27.218 3°6.209 12.7 287 4.9 102880 45
2012-02-21 10:53 51°27.317 3°5.962 13.6 284 4.9 102870 45
2012-02-21 10:54 51°27.414 3°5.715 11.1 284 4.9 102880 46
2012-02-21 10:55 51°27.512 3°5.465 10.8 287 4.9 102880 46
2012-02-21 10:56 51°27.601 3°5.208 6 282 4.9 102870 45
2012-02-21 10:57 51°27.704 3°4.967 11.7 283 4.8 102890 45
2012-02-21 10:58 51°27.813 3°4.733 10.5 284 4.9 102870 45
2012-02-21 10:59 51°27.908 3°4.483 12.1 279 4.9 102880 46
2012-02-21 11:00 51°28.004 3°4.237 11.5 280 4.9 102880 45
2012-02-21 11:01 51°28.108 3°3.996 9.6 284 4.9 102880 45
2012-02-21 11:02 51°28.19 3°3.745 11.8 283 4.8 102880 46
2012-02-21 11:03 51°28.246 3°3.59 11 280 4.8 102880 46
2012-02-21 11:04 51°28.291 3°3.506 9 284 4.8 102890 46
2012-02-21 11:05 51°28.31 3°3.512 10.1 286 4.8 102930 46
2012-02-21 11:06 51°28.326 3°3.543 7.7 280 4.8 102900 46
2012-02-21 11:07 51°28.339 3°3.581 6.8 283 4.8 102910 45
2012-02-21 11:08 51°28.349 3°3.626 8.2 281 4.8 102910 45
2012-02-21 11:09 51°28.357 3°3.676 5.3 282 4.8 102910 46
2012-02-21 11:10 51°28.366 3°3.726 5.1 279 4.8 102910 46
2012-02-21 11:11 51°28.373 3°3.776 5.4 281 4.7 102910 47
2012-02-21 11:12 51°28.381 3°3.827 5.7 285 4.7 102910 47
2012-02-21 11:13 51°28.389 3°3.879 6.9 83 4.7 102900 47
2012-02-21 11:14 51°28.397 3°3.929 5.2 279 4.7 102910 45
2012-02-21 11:15 51°28.407 3°3.982 5.2 286 4.7 102900 45
2012-02-21 11:16 51°28.416 3°4.035 7.3 283 4.7 102910 45
2012-02-21 11:17 51°28.425 3°4.088 6.4 283 4.7 102910 45
2012-02-21 11:18 51°28.432 3°4.145 4.9 281 4.7 102900 45
2012-02-21 11:19 51°28.44 3°4.2 4.8 280 4.7 102900 47
2012-02-21 11:20 51°28.463 3°4.238 8.4 280 4.7 102890 45
2012-02-21 11:21 51°28.488 3°4.239 9.1 280 4.8 102890 47
2012-02-21 11:22 51°28.5 3°4.095 13.5 284 4.8 102880 46
2012-02-21 11:23 51°28.504 3°3.863 14.8 288 4.8 102870 46
2012-02-21 11:24 51°28.456 3°3.593 11.9 282 4.8 102870 46
2012-02-21 11:25 51°28.398 3°3.324 12.4 286 4.9 102880 47
2012-02-21 11:26 51°28.346 3°3.051 13.7 286 4.9 102880 46
2012-02-21 11:27 51°28.311 3°2.771 12.8 286 4.9 102870 47
2012-02-21 11:28 51°28.267 3°2.496 13.9 284 5 102870 47
2012-02-21 11:29 51°28.218 3°2.223 16.9 283 5 102860 46
2012-02-21 11:30 51°28.172 3°1.95 11.7 284 5 102870 47
2012-02-21 11:31 51°28.137 3°1.671 14.7 284 5.1 102870 47
2012-02-21 11:32 51°28.09 3°1.397 12.3 282 5.1 102870 46
2012-02-21 11:33 51°28.043 3°1.125 14.5 283 5.1 102870 47
2012-02-21 11:34 51°28.008 3°0.848 11.6 282 5.1 102880 46
2012-02-21 11:35 51°27.973 3°0.571 11.9 279 5.1 102880 47
2012-02-21 11:36 51°27.936 3°0.294 6.3 284 5.1 102870 46
2012-02-21 11:37 51°27.886 3°0.023 11.9 286 5.2 102860 47
2012-02-21 11:38 51°27.847 2°59.748 11.7 287 5.2 102870 46
2012-02-21 11:39 51°27.801 2°59.476 14.8 278 5.2 102870 47
2012-02-21 11:40 51°27.767 2°59.197 14 285 5.2 102860 46
2012-02-21 11:41 51°27.72 2°58.929 6.9 282 5.2 102860 47
2012-02-21 11:42 51°27.673 2°58.658 11.5 280 5.2 102870 46
2012-02-21 11:43 51°27.643 2°58.38 13.8 280 5.2 102860 47
2012-02-21 11:44 51°27.601 2°58.111 13.3 285 5.3 102860 47
2012-02-21 11:45 51°27.563 2°57.838 13.8 278 5.3 102860 47
2012-02-21 11:46 51°27.53 2°57.562 11.3 285 5.4 102860 47
2012-02-21 11:47 51°27.489 2°57.291 16.3 281 5.4 102860 47
2012-02-21 11:48 51°27.462 2°57.016 13.8 285 5.4 102850 47
2012-02-21 11:49 51°27.423 2°56.748 16.3 280 5.4 102850 47
2012-02-21 11:50 51°27.38 2°56.484 14.4 281 5.4 102850 46
2012-02-21 11:51 51°27.344 2°56.214 11.9 324 5.5 102840 46
2012-02-21 11:52 51°27.317 2°55.938 12.3 281 5.5 102850 46
2012-02-21 11:53 51°27.274 2°55.671 13.1 284 5.5 102860 46
2012-02-21 11:54 51°27.241 2°55.399 16.8 281 5.5 102850 46
2012-02-21 11:55 51°27.21 2°55.126 11.6 278 5.5 102860 47
2012-02-21 11:56 51°27.133 2°54.881 16.9 283 5.5 102860 47
2012-02-21 11:57 51°27.057 2°54.641 13.4 284 5.5 102860 47
2012-02-21 11:58 51°26.986 2°54.396 6.7 280 5.5 102860 47
2012-02-21 11:59 51°26.93 2°54.143 16.8 284 5.5 102840 47
2012-02-21 12:00 51°26.871 2°53.891 16.3 286 5.6 102850 47
2012-02-21 12:01 51°26.822 2°53.63 13.7 279 5.6 102850 47
2012-02-21 12:02 51°26.768 2°53.369 13.4 281 5.6 102860 47
2012-02-21 12:03 51°26.706 2°53.111 12 285 5.6 102850 47
2012-02-21 12:04 51°26.662 2°52.844 14 280 5.6 102850 46
2012-02-21 12:05 51°26.613 2°52.582 12.6 282 5.6 102850 47
2012-02-21 12:06 51°26.552 2°52.328 15 280 5.7 102850 47
2012-02-21 12:07 51°26.496 2°52.073 14.5 282 5.7 102850 47
2012-02-21 12:08 51°26.453 2°51.809 11.8 282 5.7 102850 47
2012-02-21 12:09 51°26.396 2°51.552 16.3 285 5.7 102850 47
2012-02-21 12:10 51°26.356 2°51.287 12.1 282 5.7 102850 46
2012-02-21 12:11 51°26.349 2°51.013 13.4 282 5.7 102850 46
2012-02-21 12:12 51°26.334 2°50.74 11.1 283 5.7 102850 46
2012-02-21 12:13 51°26.297 2°50.475 6.9 283 5.7 102860 46
2012-02-21 12:14 51°26.264 2°50.208 15.4 284 5.7 102850 47
2012-02-21 12:15 51°26.241 2°49.935 10.7 282 5.8 102850 47
2012-02-21 12:16 51°26.217 2°49.663 13.1 286 5.8 102860 47
2012-02-21 12:17 51°26.184 2°49.394 12.1 286 5.8 102850 47
2012-02-21 12:18 51°26.143 2°49.128 17.6 286 5.8 102850 46
2012-02-21 12:19 51°26.103 2°48.856 12 283 5.8 102850 47
2012-02-21 12:20 51°26.051 2°48.601 12.1 282 5.8 102850 47
2012-02-21 12:21 51°26.049 2°48.512 8.4 280 5.9 102860 47
2012-02-21 12:22 51°26.085 2°48.53 5.9 285 5.9 102880 46
2012-02-21 12:23 51°26.118 2°48.575 5.8 283 5.8 102880 46
2012-02-21 12:24 51°26.151 2°48.623 4.8 280 5.8 102880 47
2012-02-21 12:25 51°26.183 2°48.672 8 286 5.8 102890 46
2012-02-21 12:26 51°26.211 2°48.72 6.2 278 5.7 102880 46
2012-02-21 12:27 51°26.242 2°48.769 7.8 285 5.8 102870 48
2012-02-21 12:28 51°26.269 2°48.82 8.8 279 5.8 102870 48
2012-02-21 12:29 51°26.297 2°48.876 7.1 286 5.8 102870 47
2012-02-21 12:30 51°26.323 2°48.932 5.7 284 5.8 102880 47
2012-02-21 12:31 51°26.352 2°48.987 8.7 282 5.8 102880 46
2012-02-21 12:32 51°26.394 2°48.99 8.9 286 5.8 102860 46
2012-02-21 12:33 51°26.405 2°48.939 8.5 282 5.8 102860 46
2012-02-21 12:34 51°26.372 2°48.88 10.3 287 5.8 102860 47
2012-02-21 12:35 51°26.302 2°48.682 15.1 283 5.8 102850 47
2012-02-21 12:36 51°26.214 2°48.443 12.9 284 5.8 102850 47
2012-02-21 12:37 51°26.117 2°48.212 14.8 282 5.8 102860 47
2012-02-21 12:38 51°26.02 2°47.979 11.9 278 5.8 102830 47
2012-02-21 12:39 51°25.927 2°47.743 13 286 5.8 102840 47
2012-02-21 12:40 51°25.837 2°47.5 10.8 283 5.8 102830 47
2012-02-21 12:41 51°25.732 2°47.271 16.7 282 5.8 102830 47
2012-02-21 12:42 51°25.635 2°47.035 15.2 286 5.8 102830 48
2012-02-21 12:43 51°25.539 2°46.792 11.1 283 5.8 102840 47
2012-02-21 12:44 51°25.441 2°46.551 12.7 282 5.8 102840 48
2012-02-21 12:45 51°25.349 2°46.309 15.2 286 5.8 102830 48
2012-02-21 12:46 51°25.245 2°46.078 13.2 331 5.9 102820 48
2012-02-21 12:47 51°25.14 2°45.849 11.6 329 5.9 102830 47
2012-02-21 12:48 51°25.047 2°45.603 14.5 282 5.9 102830 47
2012-02-21 12:49 51°24.95 2°45.36 14.2 329 5.9 102830 48
2012-02-21 12:50 51°24.843 2°45.131 11.7 285 5.9 102830 48
2012-02-21 12:51 51°24.744 2°44.893 15 331 5.9 102810 47
2012-02-21 12:52 51°24.644 2°44.661 11.5 330 5.9 102820 47
2012-02-21 12:53 51°24.548 2°44.426 16.5 331 5.9 102830 48
2012-02-21 12:54 51°24.443 2°44.205 14.7 330 5.9 102830 47
2012-02-21 12:55 51°24.352 2°43.972 13 330 6 102820 47
2012-02-21 12:56 51°24.254 2°43.744 11.7 281 6 102810 48
2012-02-21 12:57 51°24.152 2°43.519 15.5 283 6 102830 47
2012-02-21 12:58 51°24.057 2°43.287 17.8 329 6 102830 48
2012-02-21 12:59 51°23.961 2°43.062 16.9 286 6 102830 48
2012-02-21 13:00 51°23.869 2°42.826 15.9 331 6 102830 48
2012-02-21 13:01 51°23.76 2°42.61 15.3 282 6 102830 48
2012-02-21 13:02 51°23.667 2°42.378 13 330 6 102830 47
2012-02-21 13:03 51°23.573 2°42.147 13.9 331 6 102820 47
2012-02-21 13:04 51°23.47 2°41.924 7.7 280 6 102830 48
2012-02-21 13:05 51°23.378 2°41.687 18 330 6.1 102830 48
2012-02-21 13:06 51°23.275 2°41.464 12.7 285 6.1 102810 48
2012-02-21 13:07 51°23.138 2°41.292 17.3 336 6.1 102820 48
2012-02-21 13:08 51°23 2°41.119 15.6 281 6.1 102830 48
2012-02-21 13:09 51°22.862 2°40.948 9.7 335 6.1 102820 47
2012-02-21 13:10 51°22.716 2°40.789 12.8 337 6 102830 48
2012-02-21 13:11 51°22.569 2°40.629 19.7 336 6 102830 48
2012-02-21 13:12 51°22.428 2°40.459 13.2 335 6 102810 48
2012-02-21 13:13 51°22.299 2°40.264 14.6 331 6.1 102820 48
2012-02-21 13:14 51°22.205 2°40.024 13 329 6.1 102810 48
2012-02-21 13:15 51°22.111 2°39.783 14.9 329 6.1 102800 47
2012-02-21 13:16 51°22.02 2°39.539 14.9 328 6.1 102810 47
2012-02-21 13:17 51°21.928 2°39.297 13.4 330 6.1 102810 47
2012-02-21 13:18 51°21.832 2°39.059 16.9 328 6.1 102830 47
2012-02-21 13:19 51°21.75 2°38.806 13.6 329 6.1 102820 47
2012-02-21 13:20 51°21.654 2°38.567 19.4 328 6.1 102820 48
2012-02-21 13:21 51°21.562 2°38.32 15.4 328 6.1 102810 48
2012-02-21 13:22 51°21.48 2°38.065 14.2 281 6.1 102830 47
2012-02-21 13:23 51°21.436 2°37.789 14.6 320 6.1 102810 47
2012-02-21 13:24 51°21.417 2°37.504 16.2 284 6.1 102810 48
2012-02-21 13:25 51°21.369 2°37.234 13.2 279 6.2 102810 48
2012-02-21 13:26 51°21.315 2°36.965 15.6 285 6.2 102820 48
2012-02-21 13:27 51°21.275 2°36.689 15.3 324 6.2 102790 48
2012-02-21 13:28 51°21.23 2°36.417 12.8 280 6.2 102810 47
2012-02-21 13:29 51°21.17 2°36.152 15.2 281 6.3 102810 47
2012-02-21 13:30 51°21.12 2°35.879 15.1 282 6.3 102800 47
2012-02-21 13:31 51°21.077 2°35.603 13.7 280 6.3 102800 47
2012-02-21 13:32 51°21.029 2°35.339 16.8 325 6.3 102810 48
2012-02-21 13:33 51°20.986 2°35.073 12.4 284 6.4 102800 47
2012-02-21 13:34 51°20.94 2°34.802 13.3 324 6.4 102810 48
2012-02-21 13:35 51°20.896 2°34.529 15.8 287 6.4 102770 47
2012-02-21 13:36 51°20.857 2°34.255 13.7 326 6.4 102780 47
2012-02-21 13:37 51°20.801 2°33.99 16.2 324 6.4 102800 47
2012-02-21 13:38 51°20.758 2°33.714 16.2 280 6.5 102790 48
2012-02-21 13:39 51°20.724 2°33.431 12.8 323 6.5 102780 48
2012-02-21 13:40 51°20.674 2°33.157 13.6 282 6.5 102800 48
2012-02-21 13:41 51°20.617 2°32.888 12.9 325 6.5 102790 48
2012-02-21 13:42 51°20.575 2°32.608 12 280 6.5 102800 48
2012-02-21 13:43 51°20.535 2°32.326 7.7 323 6.5 102790 47
2012-02-21 13:44 51°20.478 2°32.052 13.7 283 6.5 102780 47
2012-02-21 13:45 51°20.426 2°31.777 12.6 283 6.6 102800 47
2012-02-21 13:46 51°20.383 2°31.494 17.7 325 6.6 102800 48
2012-02-21 13:47 51°20.323 2°31.22 13.1 325 6.6 102780 47
2012-02-21 13:48 51°20.27 2°30.946 16.5 323 6.6 102810 47
2012-02-21 13:49 51°20.226 2°30.669 7.7 325 6.6 102790 47
2012-02-21 13:50 51°20.178 2°30.397 7 327 6.6 102800 47
2012-02-21 13:51 51°20.124 2°30.15 12.6 325 6.7 102810 47
2012-02-21 13:52 51°20.065 2°30.019 14 338 6.7 102830 48
2012-02-21 13:53 51°20.012 2°30 10.9 345 6.6 102830 48
2012-02-21 13:54 51°19.986 2°29.994 8.1 319 6.6 102840 48
2012-02-21 13:55 51°20.005 2°29.985 8.8 22 6.6 102830 46
2012-02-21 13:56 51°20.037 2°30.008 9.5 251 6.7 102830 47
2012-02-21 13:57 51°20.066 2°30.043 8.2 22 6.7 102830 47
2012-02-21 13:58 51°20.092 2°30.085 8.6 254 6.7 102830 47
2012-02-21 13:59 51°20.115 2°30.134 9.5 263 6.7 102840 47
2012-02-21 14:00 51°20.137 2°30.184 6.1 264 6.7 102840 48
2012-02-21 14:01 51°20.158 2°30.233 7.2 281 6.7 102840 48
2012-02-21 14:02 51°20.177 2°30.28 6.5 264 6.6 102840 46
2012-02-21 14:03 51°20.226 2°30.333 6.9 27 6.7 102840 47
2012-02-21 14:04 51°20.256 2°30.463 8.4 27 6.7 102850 46
2012-02-21 14:05 51°20.214 2°30.672 8 12 6.7 102840 47
2012-02-21 14:06 51°20.102 2°30.929 10.8 1 6.6 102830 47
2012-02-21 14:07 51°19.943 2°31.121 10.8 -999 6.6 102820 47
2012-02-21 14:08 51°19.792 2°31.342 9.8 3 6.5 102820 47
2012-02-21 14:09 51°19.651 2°31.576 9.8 6 6.5 102810 47
2012-02-21 14:10 51°19.516 2°31.824 8.8 7 6.4 102830 47
2012-02-21 14:11 51°19.38 2°32.062 9.6 5 6.4 102820 47
2012-02-21 14:12 51°19.246 2°32.306 8.5 6 6.4 102830 48
2012-02-21 14:13 51°19.112 2°32.546 9.1 4 6.4 102820 48
2012-02-21 14:14 51°18.978 2°32.783 9 6 6.4 102820 47
2012-02-21 14:15 51°18.847 2°33.027 8.3 4 6.4 102830 47
2012-02-21 14:16 51°18.716 2°33.268 8.6 5 6.4 102820 48
2012-02-21 14:17 51°18.58 2°33.507 8.6 4 6.4 102820 47
2012-02-21 14:18 51°18.443 2°33.739 8.5 5 6.4 102810 48
2012-02-21 14:19 51°18.307 2°33.982 9.7 3 6.4 102820 45
2012-02-21 14:20 51°18.171 2°34.223 12.1 2 6.4 102820 47
2012-02-21 14:21 51°18.034 2°34.466 12.4 3 6.4 102810 47
2012-02-21 14:22 51°17.9 2°34.716 11.9 2 6.4 102820 47
2012-02-21 14:23 51°17.762 2°34.963 10.6 360 6.4 102820 46
2012-02-21 14:24 51°17.617 2°35.197 9.8 -999 6.4 102810 48
2012-02-21 14:25 51°17.477 2°35.435 8.4 4 6.4 102810 47
2012-02-21 14:26 51°17.337 2°35.673 9.5 2 6.4 102820 46
2012-02-21 14:27 51°17.194 2°35.906 13.9 360 6.4 102820 45
2012-02-21 14:28 51°17.055 2°36.143 9.1 3 6.4 102820 47
2012-02-21 14:29 51°16.906 2°36.353 10.7 359 6.4 102820 47
2012-02-21 14:30 51°16.738 2°36.523 12.5 355 6.4 102810 47
2012-02-21 14:31 51°16.602 2°36.663 10.1 2 6.4 102820 47
2012-02-21 14:32 51°16.543 2°36.805 7.9 35 6.5 102840 46
2012-02-21 14:33 51°16.615 2°36.912 6.5 263 6.6 102880 46
2012-02-21 14:34 51°16.652 2°36.947 7.7 262 6.6 102840 47
2012-02-21 14:35 51°16.67 2°36.994 5.7 285 6.6 102850 46
2012-02-21 14:36 51°16.689 2°37.04 10 270 6.6 102850 46
2012-02-21 14:37 51°16.71 2°37.087 8.5 283 6.6 102840 45
2012-02-21 14:38 51°16.732 2°37.133 8.5 270 6.6 102850 46
2012-02-21 14:39 51°16.754 2°37.178 11.7 286 6.6 102850 46
2012-02-21 14:40 51°16.777 2°37.223 6.4 263 6.6 102870 45
2012-02-21 14:41 51°16.814 2°37.262 9.8 270 6.7 102900 46
2012-02-21 14:42 51°16.873 2°37.357 8.3 40 6.7 102860 45
2012-02-21 14:43 51°16.85 2°37.493 9.9 7 6.7 102840 45
2012-02-21 14:44 51°16.724 2°37.639 13 359 6.6 102820 46
2012-02-21 14:45 51°16.551 2°37.759 12.9 353 6.7 102800 46
2012-02-21 14:46 51°16.364 2°37.742 16.3 284 6.7 102800 45
2012-02-21 14:47 51°16.187 2°37.657 18.2 283 6.7 102810 46
2012-02-21 14:48 51°16.004 2°37.641 14.6 348 6.8 102810 46
2012-02-21 14:49 51°15.816 2°37.644 8.1 349 6.8 102800 46
2012-02-21 14:50 51°15.627 2°37.635 7.4 282 6.8 102800 46
2012-02-21 14:51 51°15.435 2°37.624 12.5 346 6.7 102810 45
2012-02-21 14:52 51°15.243 2°37.61 18.6 346 6.7 102810 45
2012-02-21 14:53 51°15.052 2°37.593 16.9 281 6.7 102810 46
2012-02-21 14:54 51°14.86 2°37.563 11.2 348 6.7 102810 46
2012-02-21 14:55 51°14.667 2°37.548 13.4 280 6.6 102820 45
2012-02-21 14:56 51°14.472 2°37.539 6.8 347 6.6 102830 46
2012-02-21 14:57 51°14.276 2°37.535 10.9 344 6.5 102840 46
2012-02-21 14:58 51°14.08 2°37.501 11.4 282 6.5 102840 46
2012-02-21 14:59 51°13.882 2°37.467 12.3 281 6.5 102830 45
2012-02-21 15:00 51°13.682 2°37.452 10.7 279 6.4 102830 46
2012-02-21 15:01 51°13.486 2°37.421 10.1 348 6.4 102840 46
2012-02-21 15:02 51°13.291 2°37.39 15.1 350 6.4 102820 46
2012-02-21 15:03 51°13.096 2°37.364 14.2 282 6.4 102830 46
2012-02-21 15:04 51°12.899 2°37.328 15 348 6.4 102830 46
2012-02-21 15:05 51°12.702 2°37.307 11.8 349 6.4 102820 46
2012-02-21 15:06 51°12.504 2°37.292 6.5 280 6.5 102820 46
2012-02-21 15:07 51°12.307 2°37.252 14.6 282 6.5 102830 46
2012-02-21 15:08 51°12.11 2°37.232 15.6 283 6.5 102840 46
2012-02-21 15:09 51°11.913 2°37.205 8.5 282 6.5 102840 45
2012-02-21 15:10 51°11.719 2°37.146 11.5 282 6.6 102840 45
2012-02-21 15:11 51°11.521 2°37.101 16.3 347 6.6 102840 46
2012-02-21 15:12 51°11.324 2°37.052 12.9 283 6.6 102850 46
2012-02-21 15:13 51°11.129 2°36.995 10.9 284 6.5 102860 46
2012-02-21 15:14 51°10.934 2°36.938 6 345 6.4 102850 45
2012-02-21 15:15 51°10.738 2°36.924 11.2 285 6.4 102860 45
2012-02-21 15:16 51°10.545 2°36.88 10.6 283 6.3 102860 45
2012-02-21 15:17 51°10.365 2°36.978 8.3 1 6.2 102870 46
2012-02-21 15:18 51°10.344 2°37.29 2.7 17 6.1 102880 45
2012-02-21 15:19 51°10.405 2°37.622 2.4 17 6.1 102890 45
2012-02-21 15:20 51°10.467 2°37.957 2.7 15 6.1 102890 46
2012-02-21 15:21 51°10.52 2°38.294 3.6 17 6.1 102890 45
2012-02-21 15:22 51°10.569 2°38.633 2.9 22 6.1 102890 47
2012-02-21 15:23 51°10.627 2°38.967 3.7 14 6.1 102890 45
2012-02-21 15:24 51°10.677 2°39.299 3.4 12 6.2 102890 45
2012-02-21 15:25 51°10.72 2°39.633 3.6 19 6.1 102890 47
2012-02-21 15:26 51°10.777 2°39.966 2.4 17 6.1 102900 47
2012-02-21 15:27 51°10.836 2°40.299 4.1 16 6.1 102900 45
2012-02-21 15:28 51°10.877 2°40.636 3.2 17 6.2 102890 47
2012-02-21 15:29 51°10.932 2°40.965 3 16 6.1 102900 47
2012-02-21 15:30 51°10.989 2°41.294 3.5 16 6.1 102900 45
2012-02-21 15:31 51°11.029 2°41.625 3.2 15 6.1 102900 47
2012-02-21 15:32 51°11.068 2°41.919 3.2 34 6.1 102900 47
2012-02-21 15:33 51°11.091 2°42.087 4 74 6.2 102910 47
2012-02-21 15:34 51°11.141 2°42.147 6.1 288 6.3 102910 48
2012-02-21 15:35 51°11.154 2°42.156 5.3 285 6.3 102920 45
2012-02-21 15:36 51°11.164 2°42.166 6.9 283 6.3 102920 47
2012-02-21 15:37 51°11.172 2°42.177 7.9 284 6.3 102920 47
2012-02-21 15:38 51°11.178 2°42.191 5.4 280 6.4 102920 45
2012-02-21 15:39 51°11.181 2°42.206 6.3 287 6.3 102920 47
2012-02-21 15:40 51°11.193 2°42.222 6.4 75 6.3 102920 47
2012-02-21 15:41 51°11.224 2°42.324 4.6 32 6.4 102910 46
2012-02-21 15:42 51°11.224 2°42.584 4 19 6.4 102910 47
2012-02-21 15:43 51°11.226 2°42.912 3.1 25 6.4 102910 45
2012-02-21 15:44 51°11.267 2°43.235 1.9 26 6.4 102910 47
2012-02-21 15:45 51°11.302 2°43.562 3 24 6.3 102920 46
2012-02-21 15:46 51°11.32 2°43.887 2.6 29 6.3 102920 45
2012-02-21 15:47 51°11.352 2°44.208 2.2 31 6.3 102910 46
2012-02-21 15:48 51°11.394 2°44.527 0.6 28 6.4 102910 47
2012-02-21 15:49 51°11.471 2°44.831 0.4 34 6.4 102910 45
2012-02-21 15:50 51°11.533 2°45.144 2 24 6.4 102910 45
2012-02-21 15:51 51°11.59 2°45.46 2.2 25 6.3 102910 45
2012-02-21 15:52 51°11.671 2°45.762 1.7 35 6.2 102910 45
2012-02-21 15:53 51°11.75 2°46.068 0.4 41 6.2 102910 47
2012-02-21 15:54 51°11.84 2°46.365 0.9 27 6.2 102910 46
2012-02-21 15:55 51°11.921 2°46.67 1.5 27 6.2 102910 45
2012-02-21 15:56 51°11.998 2°46.972 0.5 42 6.2 102910 45
2012-02-21 15:57 51°12.071 2°47.277 1 28 6.2 102910 46
2012-02-21 15:58 51°12.154 2°47.571 0.6 25 6.2 102910 45
2012-02-21 15:59 51°12.23 2°47.87 0.4 30 6.1 102910 44
2012-02-21 16:00 51°12.324 2°48.154 0.1 33 6.1 102910 45
2012-02-21 16:01 51°12.415 2°48.443 0.1 41 6.1 102910 45
2012-02-21 16:02 51°12.514 2°48.725 0.6 25 6.1 102910 45
2012-02-21 16:03 51°12.601 2°49.017 0.1 27 6.1 102910 44
2012-02-21 16:04 51°12.691 2°49.306 0.2 38 6.1 102910 46
2012-02-21 16:05 51°12.782 2°49.595 0.1 2 6 102910 45
2012-02-21 16:06 51°12.892 2°49.863 0.1 283 6 102910 45
2012-02-21 16:07 51°12.999 2°50.135 0.1 77 6.1 102910 46
2012-02-21 16:08 51°13.089 2°50.42 0.1 359 6.2 102920 46
2012-02-21 16:09 51°13.196 2°50.692 -999 283 6.3 102920 46
2012-02-21 16:10 51°13.304 2°50.964 0.1 28 6.5 102920 46
2012-02-21 16:11 51°13.394 2°51.256 0.1 17 6.6 102920 45
2012-02-21 16:12 51°13.489 2°51.542 0.9 12 6.5 102920 45
2012-02-21 16:13 51°13.569 2°51.838 1 11 6.3 102920 46
2012-02-21 16:14 51°13.674 2°52.114 0.1 25 6.1 102920 45
2012-02-21 16:14 51°15.395 3°1.433 3.3 18 2.6 102910 43
2012-02-21 16:15 51°13.8 2°52.429 0.1 21 6.1 102920 45
2012-02-21 16:16 51°13.902 2°52.714 0.1 21 6.1 102920 44
2012-02-21 16:17 51°13.998 2°52.989 0.6 27 6 102920 45
2012-02-21 16:18 51°14.102 2°53.262 1.5 34 6 102920 45
2012-02-21 16:19 51°14.216 2°53.528 0.4 21 6.1 102920 46
2012-02-21 16:20 51°14.335 2°53.789 1.3 42 6.2 102920 46
2012-02-21 16:21 51°14.441 2°54.059 1 30 6.3 102920 46
2012-02-21 16:22 51°14.542 2°54.327 0.4 27 6.4 102920 45
2012-02-21 16:23 51°14.627 2°54.6 3.7 21 6.3 102920 46
2012-02-21 16:24 51°14.576 2°54.886 5.2 5 6.1 102910 44
2012-02-21 16:25 51°14.441 2°55.121 9.4 358 6 102900 45
2012-02-21 16:26 51°14.312 2°55.252 6.3 359 6.1 102910 45
2012-02-21 16:27 51°14.202 2°55.353 5.6 354 6.5 102910 47
2012-02-21 16:28 51°14.086 2°55.441 6.5 340 7.1 102920 46
2012-02-21 16:29 51°13.986 2°55.515 6.9 342 7.6 102910 47
2012-02-21 16:30 51°13.901 2°55.576 4.2 -999 8 102910 45
2012-02-21 16:31 51°13.822 2°55.634 4.1 352 8.2 102920 46
2012-02-21 16:32 51°13.762 2°55.701 4.9 -999 8.4 102920 44
2012-02-21 16:33 51°13.728 2°55.772 3.2 6 8.5 102920 44
2012-02-21 16:34 51°13.698 2°55.851 5 -999 8.5 102920 43